Airfield :
LOGIN :

Register | Disclaimer

   EN    FR    IT 

 










Legend :    VFR   Marginal VFR   IFR   Intensive IFR   Very Intensive IFR
Visi :
Ceiling :
>= 8 km
>= 3000ft
5 to 8 km
1000 to 3000 ft
1500m to 5 km
500 to 1000 ft
800 to 1500m
200 to 500 ft
< 800m
< 200 ft
Symbols :   Thunderstorms  Fog  Heavy snow  Heavy precipitations  Wind > 20 kt
SIGMETs :     Misc.  Thunderstorms  Icing  Turbulence  Mountain Waves  Volcanic Ashes






- Airport Elevation : 194 ft


EBCV - Chièvres

CURRENT METAR :
  • 201255Z AUTO 32011KT 9999 FEW016/// OVC047/// 04/M00 Q1031 BLU

EXPIRED METARs :
  • 201233Z AUTO 34012G25KT 9999 -RA SCT018/// BKN054/// 03/01 Q1032 WHT
  • 201225Z AUTO 33008KT 9999 SCT025/// BKN055/// 05/01 Q1032 BLU
  • 201143Z AUTO 33007KT 9999 OVC054/// 04/02 Q1032 BLU
  • 201125Z AUTO 34009KT 9999 SCT014/// OVC046/// 04/02 Q1032 GRN
  • 201119Z AUTO 32010KT 9999 BKN018/// OVC043/// 04/01 Q1032 WHT
  • 201108Z AUTO 30008KT 4000 -RA BKN020/// 04/02 Q1032 GRN
  • 201025Z AUTO 31006KT 9999 OVC050/// 04/02 Q1031 BLU
  • 200955Z AUTO 28005KT 9999 FEW035/// OVC050/// 04/02 Q1031 BLU

TAF TAF EBCV
Valid from the 20 at 13:00 until the 20 at 22:00 UTC


201141Z 2013/2022 32008KT 9999 BKN050
TEMPO 2013/2020 5000 -SHRA SCT018 BKN025
PROB30
TEMPO 2013/2016 34010G20KT 3000 SHRA SHRASN SCT013 BKN018 BY EBWM



MET'MAP, your aeronautical weather chart ! - Copyright ORBIFLY December 2007 - Disclaimer

ORBIFLY MET'MAP TEAM :

Programming & Development : Alexandra Zaïnal
Concept & original design : Baudouin d'Aumeries
Assistance for programming : Marc-Olivier Méhu
Technical & hardware support : Manuel Goepfert

Contact : metmap@orbifly.com




SOURCES & CREDITS :

   NOAA